Pagrindinis puslapis
METAR-TAF:

METAR-TAF

Oro uostai :

Gökçeada, Turkija

platuma: 40-12-04N, ilguma: 25-52-56E, Aukštis: 22 m

Dabartinis oras

Ataskaita buvo paskelbta 16 valandos ir 9 minutes, ne 12:50 UTC
Vėjas 6 kt nuo kintamojo kryptimis
Temperatūra 16°C
Drėgmė 39%
Slėgis 1017 hPa
Matomumas 10 km arba daugiau
nėra debesų žemiau 1500 m ir nėra kamuolinių lietaus debesų

METAR: LTFK 091250Z VRB06KT CAVOK 16/02 Q1017

Laikas: 07:59 (04:59 UTC)

Prognozė

Ataskaita buvo paskelbta 3 valandos ir 19 minutes, ne 01:40 UTC
Prognozė galioja nuo 10 metu 03 UTC su 10 metu 12 UTC
Vėjas 2 kt nuo kintamojo kryptimis
Matomumas 10 km arba daugiau
nėra debesų žemiau 1500 m ir nėra kamuolinių lietaus debesų

TAF: LTFK 100140Z 1003/1012 VRB02KT CAVOK

Orai ataskaitas ir orų prognozės (METAR, TAF).

turimą stotys yra geltonos ir raudonos taškus žemėlapyje.

Perkelti pele per norėdami pamatyti stoties vardą.

Tada spustelėkite, norėdami matyti oro stebėjimo ir prognozės.

Norėdami pakeisti žemėlapį: spustelėkite ant žalios mygtukų su juodo kryžiaus žemyn,; žalią mygtuką su brūkšneliu, jei norite nutolinti; arba žalių rodyklių gretimoms žemėlapius.


METAR-TAF: